createdAt,value
2018-06-10T00:00:23.214Z,90.48
2018-06-10T00:01:29.462Z,90.33
2018-06-10T00:02:35.717Z,91.46
2018-06-10T00:03:41.738Z,93.94
2018-06-10T00:04:47.988Z,95.83
2018-06-10T00:05:54.255Z,95.45
2018-06-10T00:07:00.618Z,94.86
2018-06-10T00:08:06.820Z,94.03
2018-06-10T00:09:13.044Z,94.09
2018-06-10T00:10:18.766Z,93.97
2018-06-10T00:11:24.973Z,93.76
2018-06-10T00:12:31.250Z,94.01
2018-06-10T00:13:37.497Z,92.76
2018-06-10T00:14:43.749Z,92.00
2018-06-10T00:15:54.975Z,91.32
2018-06-10T00:17:02.136Z,90.84
2018-06-10T00:18:08.408Z,91.07
2018-06-10T00:19:14.649Z,92.67
2018-06-10T00:20:21.774Z,94.60
2018-06-10T00:21:28.032Z,95.65
2018-06-10T00:22:34.296Z,95.82
2018-06-10T00:23:40.556Z,96.06
2018-06-10T00:24:46.820Z,95.73
2018-06-10T00:25:54.989Z,94.99
2018-06-10T00:27:01.245Z,95.03
2018-06-10T00:28:07.512Z,94.94
2018-06-10T00:29:21.178Z,95.76
2018-06-10T00:30:27.459Z,95.96
2018-06-10T00:31:34.604Z,95.59
2018-06-10T00:32:40.892Z,95.32
2018-06-10T00:33:47.177Z,95.82
2018-06-10T00:34:53.427Z,95.37
2018-06-10T00:35:59.704Z,95.76
2018-06-10T00:37:05.695Z,96.62
2018-06-10T00:38:12.007Z,97.11
2018-06-10T00:39:17.870Z,96.76
2018-06-10T00:40:24.155Z,96.12
2018-06-10T00:41:30.387Z,95.71
2018-06-10T00:42:36.658Z,95.21
2018-06-10T00:43:42.857Z,94.90
2018-06-10T00:44:49.123Z,94.36
2018-06-10T00:45:55.448Z,93.36
2018-06-10T00:47:01.459Z,92.73
2018-06-10T00:48:07.750Z,93.05
2018-06-10T00:49:13.997Z,94.17
2018-06-10T00:50:20.209Z,94.20
2018-06-10T00:51:26.420Z,94.14
2018-06-10T00:52:32.677Z,95.08
2018-06-10T00:53:38.892Z,94.93
2018-06-10T00:54:45.060Z,94.53
2018-06-10T00:55:51.366Z,94.33
2018-06-10T00:56:57.596Z,95.59
2018-06-10T00:58:03.871Z,95.34
2018-06-10T00:59:10.204Z,95.49
2018-06-10T01:00:16.497Z,96.29
2018-06-10T01:01:22.447Z,96.44
2018-06-10T01:02:28.738Z,96.01
2018-06-10T01:03:35.001Z,95.87
2018-06-10T01:04:41.211Z,96.90
2018-06-10T01:05:47.219Z,97.20
2018-06-10T01:06:53.552Z,96.39
2018-06-10T01:07:59.850Z,96.46
2018-06-10T01:09:11.686Z,94.74
2018-06-10T01:10:18.044Z,93.78
2018-06-10T01:11:26.214Z,93.33
2018-06-10T01:12:32.531Z,94.86
2018-06-10T01:13:41.338Z,94.71
2018-06-10T01:14:47.600Z,95.13
2018-06-10T01:15:53.852Z,94.69
2018-06-10T01:16:59.849Z,94.67
2018-06-10T01:18:06.208Z,95.44
2018-06-10T01:19:11.884Z,96.39
2018-06-10T01:20:18.191Z,96.77
2018-06-10T01:21:24.439Z,97.03
2018-06-10T01:22:30.685Z,96.93
2018-06-10T01:23:36.922Z,96.65
2018-06-10T01:24:43.752Z,96.83
2018-06-10T01:25:50.023Z,97.05
2018-06-10T01:26:55.947Z,97.24
2018-06-10T01:28:01.843Z,96.65
2018-06-10T01:29:08.137Z,96.19
2018-06-10T01:30:14.590Z,96.49
2018-06-10T01:31:21.671Z,96.96
2018-06-10T01:32:27.890Z,97.88
2018-06-10T01:33:34.145Z,98.23
2018-06-10T01:34:40.380Z,98.03
2018-06-10T01:35:46.724Z,97.36
2018-06-10T01:36:53.232Z,97.59
2018-06-10T01:37:59.507Z,97.22
2018-06-10T01:39:05.109Z,96.85
2018-06-10T01:40:10.968Z,96.44
2018-06-10T01:41:17.244Z,97.24
2018-06-10T01:42:23.497Z,98.29
2018-06-10T01:43:29.761Z,98.44
2018-06-10T01:44:36.028Z,98.47
2018-06-10T01:45:42.268Z,98.83
2018-06-10T01:46:48.221Z,98.21
2018-06-10T01:47:54.477Z,97.32
2018-06-10T01:49:00.741Z,96.25
2018-06-10T01:50:07.016Z,95.96
2018-06-10T01:51:13.212Z,96.48
2018-06-10T01:52:19.580Z,95.69
2018-06-10T01:53:25.841Z,95.82
2018-06-10T01:54:32.176Z,96.26
2018-06-10T01:55:38.379Z,96.24
2018-06-10T01:56:44.783Z,95.97
2018-06-10T01:57:50.708Z,95.44
2018-06-10T01:58:57.870Z,94.87
2018-06-10T02:00:03.737Z,94.58
2018-06-10T02:01:09.743Z,94.67
2018-06-10T02:02:15.979Z,94.86
2018-06-10T02:03:22.005Z,94.99
2018-06-10T02:04:28.237Z,96.51
2018-06-10T02:05:34.495Z,98.05
2018-06-10T02:06:40.734Z,98.33
2018-06-10T02:07:46.960Z,97.53
2018-06-10T02:08:53.889Z,97.68
2018-06-10T02:09:59.935Z,98.01
2018-06-10T02:11:06.246Z,97.92
2018-06-10T02:12:12.512Z,98.79
2018-06-10T02:13:18.818Z,99.38
2018-06-10T02:14:25.057Z,99.52
2018-06-10T02:15:31.347Z,100.00
2018-06-10T02:16:37.640Z,100.00
2018-06-10T02:17:43.959Z,100.00
2018-06-10T02:18:50.256Z,100.00
2018-06-10T02:19:56.535Z,100.00
2018-06-10T02:21:02.820Z,100.00
2018-06-10T02:22:09.052Z,100.00
2018-06-10T02:23:15.297Z,100.00
2018-06-10T02:24:21.619Z,99.50
2018-06-10T02:25:27.872Z,99.34
2018-06-10T02:26:34.158Z,99.57
2018-06-10T02:27:40.457Z,99.31
2018-06-10T02:28:46.776Z,99.49
2018-06-10T02:29:53.012Z,99.91
2018-06-10T02:30:59.265Z,100.00
2018-06-10T02:32:05.609Z,100.00
2018-06-10T02:33:11.926Z,100.00
2018-06-10T02:34:18.228Z,99.67
2018-06-10T02:35:24.474Z,99.39
2018-06-10T02:36:30.779Z,99.47
2018-06-10T02:37:37.042Z,99.28
2018-06-10T02:38:43.935Z,99.08
2018-06-10T02:39:50.172Z,99.07
2018-06-10T02:40:56.740Z,98.94
2018-06-10T02:42:03.591Z,98.72
2018-06-10T02:43:09.861Z,98.65
2018-06-10T02:44:16.137Z,98.48
2018-06-10T02:45:22.460Z,98.60
2018-06-10T02:46:28.902Z,98.73
2018-06-10T02:47:35.104Z,98.66
2018-06-10T02:48:41.346Z,99.37
2018-06-10T02:49:47.667Z,100.00
2018-06-10T02:50:53.921Z,100.00
2018-06-10T02:52:01.117Z,100.00
2018-06-10T02:53:07.440Z,100.00
2018-06-10T02:54:13.739Z,100.00
2018-06-10T02:55:20.063Z,100.00
2018-06-10T02:56:26.341Z,100.00
2018-06-10T02:57:32.714Z,99.24
2018-06-10T02:58:38.965Z,99.61
2018-06-10T02:59:45.271Z,100.00
2018-06-10T03:00:51.555Z,100.00
2018-06-10T03:01:57.786Z,100.00
2018-06-10T03:03:04.041Z,100.00
2018-06-10T03:04:10.373Z,100.00
2018-06-10T03:05:16.588Z,100.00
2018-06-10T03:06:22.823Z,100.00
2018-06-10T03:07:29.124Z,100.00
2018-06-10T03:08:35.392Z,100.00
2018-06-10T03:09:41.356Z,100.00
2018-06-10T03:10:47.675Z,100.00
2018-06-10T03:11:54.087Z,100.00
2018-06-10T03:13:00.401Z,100.00
2018-06-10T03:14:06.676Z,100.00
2018-06-10T03:15:12.906Z,100.00
2018-06-10T03:16:19.145Z,100.00
2018-06-10T03:17:25.435Z,100.00
2018-06-10T03:18:31.689Z,100.00
2018-06-10T03:19:37.984Z,100.00
2018-06-10T03:20:44.492Z,100.00
2018-06-10T03:21:50.421Z,100.00
2018-06-10T03:22:56.656Z,100.00
2018-06-10T03:24:02.881Z,100.00
2018-06-10T03:25:08.793Z,100.00
2018-06-10T03:26:15.051Z,100.00
2018-06-10T03:27:21.294Z,100.00
2018-06-10T03:28:27.560Z,100.00
2018-06-10T03:29:33.856Z,100.00
2018-06-10T03:30:40.095Z,98.80
2018-06-10T03:31:46.393Z,98.00
2018-06-10T03:32:52.629Z,98.56
2018-06-10T03:33:58.912Z,100.00
2018-06-10T03:35:05.599Z,100.00
2018-06-10T03:36:12.774Z,100.00
2018-06-10T03:37:19.112Z,100.00
2018-06-10T03:38:25.401Z,100.00
2018-06-10T03:39:31.648Z,100.00
2018-06-10T03:40:37.960Z,100.00
2018-06-10T03:41:44.290Z,100.00
2018-06-10T03:42:50.602Z,100.00
2018-06-10T03:43:56.919Z,100.00
2018-06-10T03:45:03.256Z,100.00
2018-06-10T03:46:09.704Z,100.00
2018-06-10T03:47:16.105Z,100.00
2018-06-10T03:48:22.543Z,100.00
2018-06-10T03:49:28.777Z,100.00
2018-06-10T03:50:35.024Z,100.00
2018-06-10T03:51:42.133Z,100.00
2018-06-10T03:52:48.064Z,100.00
2018-06-10T03:53:54.357Z,100.00
2018-06-10T03:55:00.708Z,100.00
2018-06-10T03:56:06.990Z,100.00
2018-06-10T03:57:13.260Z,100.00
2018-06-10T03:58:19.573Z,100.00
2018-06-10T03:59:25.865Z,100.00
2018-06-10T04:00:32.140Z,100.00
2018-06-10T04:01:38.443Z,100.00
2018-06-10T04:02:45.626Z,100.00
2018-06-10T04:03:51.903Z,99.90
2018-06-10T04:04:58.281Z,99.95
2018-06-10T04:06:04.230Z,100.00
2018-06-10T04:07:10.791Z,100.00
2018-06-10T04:08:17.007Z,100.00
2018-06-10T04:09:23.237Z,100.00
2018-06-10T04:10:29.625Z,100.00
2018-06-10T04:11:35.909Z,100.00
2018-06-10T04:12:42.169Z,100.00
2018-06-10T04:13:48.497Z,100.00
2018-06-10T04:14:54.772Z,100.00
2018-06-10T04:16:01.942Z,100.00
2018-06-10T04:17:09.106Z,100.00
2018-06-10T04:18:15.371Z,100.00
2018-06-10T04:19:21.667Z,100.00
2018-06-10T04:20:28.900Z,100.00
2018-06-10T04:21:35.277Z,100.00
2018-06-10T04:22:41.632Z,100.00
2018-06-10T04:23:48.108Z,100.00
2018-06-10T04:24:55.449Z,100.00
2018-06-10T04:26:01.735Z,100.00
2018-06-10T04:27:08.048Z,100.00
2018-06-10T04:28:14.337Z,100.00
2018-06-10T04:29:20.624Z,100.00
2018-06-10T04:30:26.905Z,100.00
2018-06-10T04:31:34.012Z,100.00
2018-06-10T04:32:40.422Z,100.00
2018-06-10T04:33:46.821Z,100.00
2018-06-10T04:34:53.079Z,100.00
2018-06-10T04:35:59.446Z,100.00
2018-06-10T04:37:05.755Z,100.00
2018-06-10T04:38:12.028Z,100.00
2018-06-10T04:39:18.290Z,100.00
2018-06-10T04:40:24.593Z,100.00
2018-06-10T04:41:30.888Z,100.00
2018-06-10T04:42:37.270Z,100.00
2018-06-10T04:43:43.630Z,100.00
2018-06-10T04:44:49.631Z,100.00
2018-06-10T04:45:56.771Z,100.00
2018-06-10T04:47:04.076Z,99.48
2018-06-10T04:48:10.331Z,99.52
2018-06-10T04:49:16.592Z,99.37
2018-06-10T04:50:22.877Z,99.29
2018-06-10T04:51:29.130Z,100.00
2018-06-10T04:52:35.409Z,100.00
2018-06-10T04:53:41.664Z,99.88
2018-06-10T04:54:47.889Z,99.71
2018-06-10T04:55:54.240Z,99.50
2018-06-10T04:57:00.533Z,99.11
2018-06-10T04:58:06.853Z,98.75
2018-06-10T04:59:13.098Z,98.50
2018-06-10T05:00:19.395Z,97.60
2018-06-10T05:01:25.750Z,96.42
2018-06-10T05:02:32.007Z,96.54
2018-06-10T05:03:38.268Z,96.41
2018-06-10T05:04:44.567Z,98.45
2018-06-10T05:05:50.867Z,98.89
2018-06-10T05:06:57.141Z,99.16
2018-06-10T05:08:03.396Z,99.00
2018-06-10T05:09:09.406Z,99.04
2018-06-10T05:10:15.423Z,98.98
2018-06-10T05:11:21.798Z,99.15
2018-06-10T05:12:28.063Z,98.12
2018-06-10T05:13:34.454Z,97.89
2018-06-10T05:14:40.903Z,97.10
2018-06-10T05:15:47.412Z,96.84
2018-06-10T05:16:53.970Z,95.09
2018-06-10T05:18:00.266Z,94.15
2018-06-10T05:19:06.508Z,93.33
2018-06-10T05:20:12.751Z,92.61
2018-06-10T05:21:19.115Z,92.39
2018-06-10T05:22:25.444Z,92.75
2018-06-10T05:23:31.827Z,92.75
2018-06-10T05:24:38.027Z,92.72
2018-06-10T05:25:44.264Z,92.32
2018-06-10T05:26:50.518Z,92.79
2018-06-10T05:27:56.430Z,94.01
2018-06-10T05:29:02.629Z,94.87
2018-06-10T05:30:08.855Z,94.06
2018-06-10T05:31:15.123Z,93.93
2018-06-10T05:32:21.331Z,93.38
2018-06-10T05:33:27.608Z,92.73
2018-06-10T05:34:33.881Z,92.06
2018-06-10T05:35:40.189Z,92.29
2018-06-10T05:36:46.453Z,91.57
2018-06-10T05:37:52.691Z,91.12
2018-06-10T05:38:58.967Z,90.18
2018-06-10T05:40:04.885Z,90.41
2018-06-10T05:41:11.388Z,90.78
2018-06-10T05:42:17.715Z,88.83
2018-06-10T05:43:23.952Z,88.84
2018-06-10T05:44:30.200Z,89.11
2018-06-10T05:45:36.450Z,90.34
2018-06-10T05:46:42.730Z,90.99
2018-06-10T05:47:48.945Z,90.74
2018-06-10T05:48:55.201Z,90.22
2018-06-10T05:50:01.423Z,90.04
2018-06-10T05:51:07.655Z,90.75
2018-06-10T05:52:14.836Z,90.72
2018-06-10T05:53:21.051Z,90.59
2018-06-10T05:54:26.936Z,90.45
2018-06-10T05:55:33.246Z,91.06
2018-06-10T05:56:39.447Z,91.07
2018-06-10T05:57:45.768Z,90.44
2018-06-10T05:58:52.129Z,90.80
2018-06-10T05:59:59.223Z,91.15
2018-06-10T06:01:05.470Z,90.96
2018-06-10T06:02:11.758Z,90.91
2018-06-10T06:03:18.086Z,91.47
2018-06-10T06:04:24.375Z,90.79
2018-06-10T06:05:30.899Z,91.41
2018-06-10T06:06:38.005Z,91.36
2018-06-10T06:07:44.403Z,91.41
2018-06-10T06:08:50.755Z,90.77
2018-06-10T06:09:57.418Z,91.01
2018-06-10T06:11:03.721Z,90.39
2018-06-10T06:12:10.371Z,89.89
2018-06-10T06:13:17.074Z,90.03
2018-06-10T06:14:24.123Z,88.82
2018-06-10T06:15:30.452Z,87.97
2018-06-10T06:16:37.916Z,88.00
2018-06-10T06:17:44.427Z,87.37
2018-06-10T06:18:50.787Z,88.03
2018-06-10T06:19:57.182Z,89.31
2018-06-10T06:21:04.482Z,88.94
2018-06-10T06:22:10.533Z,90.13
2018-06-10T06:23:27.071Z,89.83
2018-06-10T06:24:33.582Z,89.59
2018-06-10T06:25:40.992Z,88.85
2018-06-10T06:26:47.290Z,88.45
2018-06-10T06:27:53.788Z,88.57
2018-06-10T06:29:00.679Z,89.89
2018-06-10T06:30:07.807Z,90.45
2018-06-10T06:31:14.206Z,90.41
2018-06-10T06:32:21.158Z,90.21
2018-06-10T06:33:28.214Z,89.45
2018-06-10T06:34:34.526Z,88.93
2018-06-10T06:35:40.827Z,88.19
2018-06-10T06:36:47.708Z,88.76
2018-06-10T06:37:54.139Z,89.33
2018-06-10T06:39:01.616Z,89.47
2018-06-10T06:40:07.975Z,89.64
2018-06-10T06:41:14.759Z,90.12
2018-06-10T06:42:22.256Z,90.37
2018-06-10T06:43:28.967Z,89.11
2018-06-10T06:44:35.341Z,90.12
2018-06-10T06:45:41.497Z,90.44
2018-06-10T06:46:47.756Z,89.67
2018-06-10T06:47:54.070Z,89.23
2018-06-10T06:49:00.361Z,89.35
2018-06-10T06:50:06.780Z,90.06
2018-06-10T06:51:13.942Z,89.84
2018-06-10T06:52:20.273Z,87.35
2018-06-10T06:53:26.635Z,87.80
2018-06-10T06:54:32.719Z,88.49
2018-06-10T06:55:39.233Z,88.69
2018-06-10T06:56:45.765Z,86.75
2018-06-10T06:57:52.160Z,86.16
2018-06-10T06:58:58.784Z,86.00
2018-06-10T07:00:04.381Z,84.37
2018-06-10T07:01:10.665Z,85.74
2018-06-10T07:02:17.023Z,83.92
2018-06-10T07:03:23.792Z,82.65
2018-06-10T07:04:30.113Z,81.22
2018-06-10T07:05:36.514Z,80.90
2018-06-10T07:06:42.796Z,81.90
2018-06-10T07:07:49.333Z,82.58
2018-06-10T07:08:57.819Z,83.84
2018-06-10T07:10:03.861Z,83.07
2018-06-10T07:11:10.241Z,82.65
2018-06-10T07:12:17.229Z,81.53
2018-06-10T07:13:23.850Z,80.08
2018-06-10T07:14:30.776Z,78.99
2018-06-10T07:15:38.408Z,79.10
2018-06-10T07:16:44.654Z,79.47
2018-06-10T07:17:50.809Z,79.43
2018-06-10T07:18:57.346Z,78.18
2018-06-10T07:20:03.290Z,78.64
2018-06-10T07:21:10.091Z,79.85
2018-06-10T07:22:16.413Z,80.04
2018-06-10T07:23:22.729Z,79.26
2018-06-10T07:24:29.051Z,79.29
2018-06-10T07:25:35.364Z,76.96
2018-06-10T07:26:42.111Z,75.83
2018-06-10T07:27:48.353Z,76.11
2018-06-10T07:28:54.690Z,76.45
2018-06-10T07:30:01.147Z,76.46
2018-06-10T07:31:07.511Z,75.72
2018-06-10T07:32:13.984Z,76.63
2018-06-10T07:33:20.814Z,77.89
2018-06-10T07:34:28.599Z,78.67
2018-06-10T07:35:34.972Z,78.89
2018-06-10T07:36:41.440Z,78.74
2018-06-10T07:37:47.700Z,79.05
2018-06-10T07:38:54.027Z,80.58
2018-06-10T07:40:00.923Z,77.46
2018-06-10T07:41:07.243Z,77.37
2018-06-10T07:42:13.533Z,77.02
2018-06-10T07:43:19.860Z,77.25
2018-06-10T07:44:26.136Z,77.24
2018-06-10T07:45:32.464Z,76.78
2018-06-10T07:46:38.692Z,75.70
2018-06-10T07:47:45.448Z,77.12
2018-06-10T07:48:53.456Z,76.55
2018-06-10T07:50:00.359Z,77.73
2018-06-10T07:51:06.336Z,79.92
2018-06-10T07:52:12.598Z,79.37
2018-06-10T07:53:19.050Z,79.56
2018-06-10T07:54:25.341Z,79.73
2018-06-10T07:55:31.453Z,79.30
2018-06-10T07:56:38.885Z,78.90
2018-06-10T07:57:45.333Z,79.14
2018-06-10T07:58:51.826Z,79.25
2018-06-10T07:59:58.208Z,79.23
2018-06-10T08:01:04.547Z,78.55
2018-06-10T08:02:11.800Z,77.28
2018-06-10T08:03:18.381Z,77.82
2018-06-10T08:04:24.787Z,77.58
2018-06-10T08:05:30.979Z,78.89
2018-06-10T08:06:38.363Z,78.48
2018-06-10T08:07:44.882Z,76.40
2018-06-10T08:08:51.167Z,76.80
2018-06-10T08:09:57.365Z,75.50
2018-06-10T08:11:03.770Z,76.54
2018-06-10T08:12:10.226Z,75.76
2018-06-10T08:13:16.495Z,77.12
2018-06-10T08:14:22.822Z,76.85
2018-06-10T08:15:29.334Z,75.60
2018-06-10T08:16:35.366Z,75.96
2018-06-10T08:17:41.695Z,76.35
2018-06-10T08:18:47.732Z,77.56
2018-06-10T08:19:54.175Z,75.86
2018-06-10T08:21:00.442Z,74.67
2018-06-10T08:22:06.740Z,75.18
2018-06-10T08:23:12.646Z,73.28
2018-06-10T08:24:18.873Z,72.72
2018-06-10T08:25:25.090Z,73.64
2018-06-10T08:26:31.635Z,74.76
2018-06-10T08:27:37.968Z,72.94
2018-06-10T08:28:44.676Z,73.62
2018-06-10T08:29:51.086Z,73.68
2018-06-10T08:30:57.380Z,72.37
2018-06-10T08:32:03.743Z,72.12
2018-06-10T08:33:10.081Z,70.54
2018-06-10T08:34:16.064Z,70.58
2018-06-10T08:35:21.947Z,72.55
2018-06-10T08:36:28.285Z,74.11
2018-06-10T08:37:34.523Z,75.87
2018-06-10T08:38:40.739Z,75.80
2018-06-10T08:39:47.004Z,74.86
2018-06-10T08:40:53.334Z,74.25
2018-06-10T08:41:59.540Z,74.55
2018-06-10T08:43:05.798Z,76.24
2018-06-10T08:44:12.069Z,77.43
2018-06-10T08:45:18.339Z,78.72
2018-06-10T08:46:24.618Z,77.58
2018-06-10T08:47:31.514Z,79.14
2018-06-10T08:48:38.739Z,77.50
2018-06-10T08:49:45.918Z,76.77
2018-06-10T08:50:52.517Z,77.13
2018-06-10T08:51:58.972Z,78.34
2018-06-10T08:53:05.447Z,79.55
2018-06-10T08:54:12.085Z,79.17
2018-06-10T08:55:18.407Z,79.10
2018-06-10T08:56:24.359Z,79.45
2018-06-10T08:57:31.543Z,78.93
2018-06-10T08:58:38.635Z,79.80
2018-06-10T08:59:46.240Z,78.89
2018-06-10T09:00:53.125Z,78.04
2018-06-10T09:02:00.276Z,78.99
2018-06-10T09:03:06.595Z,77.83
2018-06-10T09:04:13.228Z,77.36
2018-06-10T09:05:20.084Z,77.31
2018-06-10T09:06:26.058Z,77.58
2018-06-10T09:07:32.861Z,79.86
2018-06-10T09:08:42.104Z,77.79
2018-06-10T09:09:50.907Z,77.76
2018-06-10T09:10:58.977Z,78.23
2018-06-10T09:12:06.515Z,78.16
2018-06-10T09:13:13.828Z,79.68
2018-06-10T09:14:22.460Z,75.99
2018-06-10T09:15:30.730Z,77.28
2018-06-10T09:16:37.249Z,77.22
2018-06-10T09:17:43.919Z,77.42
2018-06-10T09:18:50.860Z,78.13
2018-06-10T09:19:59.534Z,77.33
2018-06-10T09:21:06.520Z,76.74
2018-06-10T09:22:13.461Z,75.59
2018-06-10T09:23:20.633Z,76.45
2018-06-10T09:24:27.471Z,73.18
2018-06-10T09:25:33.511Z,73.88
2018-06-10T09:26:40.746Z,75.44
2018-06-10T09:27:49.323Z,74.51
2018-06-10T09:28:57.031Z,74.52
2018-06-10T09:30:04.229Z,75.06
2018-06-10T09:31:10.912Z,75.35
2018-06-10T09:32:18.802Z,75.35
2018-06-10T09:33:25.486Z,77.22
2018-06-10T09:34:32.390Z,77.47
2018-06-10T09:35:38.708Z,76.98
2018-06-10T09:36:47.345Z,76.77
2018-06-10T09:37:55.457Z,77.17
2018-06-10T09:39:02.470Z,77.95
2018-06-10T09:40:09.602Z,79.22
2018-06-10T09:41:16.036Z,78.32
2018-06-10T09:42:22.388Z,76.85
2018-06-10T09:43:28.968Z,78.17
2018-06-10T09:44:35.416Z,78.52
2018-06-10T09:45:41.673Z,78.37
2018-06-10T09:46:47.311Z,78.02
2018-06-10T09:47:53.271Z,74.34
2018-06-10T09:48:59.512Z,74.75
2018-06-10T09:51:17.295Z,75.12
2018-06-10T09:52:23.516Z,73.81
2018-06-10T09:53:29.735Z,74.04
2018-06-10T09:54:36.007Z,74.16
2018-06-10T09:55:42.049Z,73.55
2018-06-10T09:56:48.109Z,74.49
2018-06-10T09:57:54.357Z,72.57
2018-06-10T09:59:00.407Z,74.16
2018-06-10T10:00:06.017Z,74.67
2018-06-10T10:01:12.251Z,75.14
2018-06-10T10:02:18.466Z,73.81
2018-06-10T10:03:24.241Z,73.33
2018-06-10T10:04:30.450Z,74.27
2018-06-10T10:05:36.347Z,75.09
2018-06-10T10:06:42.537Z,77.68
2018-06-10T10:07:48.742Z,76.84
2018-06-10T10:08:54.687Z,75.46
2018-06-10T10:10:01.170Z,74.60
2018-06-10T10:11:06.847Z,74.10
2018-06-10T10:12:13.058Z,72.73
2018-06-10T10:13:19.007Z,73.08
2018-06-10T10:14:25.248Z,73.97
2018-06-10T10:15:31.693Z,74.67
2018-06-10T10:16:37.927Z,73.79
2018-06-10T10:17:44.116Z,73.41
2018-06-10T10:18:50.059Z,74.46
2018-06-10T10:19:56.068Z,74.87
2018-06-10T10:21:02.014Z,73.94
2018-06-10T10:22:07.942Z,72.46
2018-06-10T10:23:13.937Z,72.46
2018-06-10T10:24:19.854Z,72.93
2018-06-10T10:25:25.781Z,73.62
2018-06-10T10:26:31.795Z,73.87
2018-06-10T10:27:37.728Z,75.47
2018-06-10T10:28:43.679Z,75.22
2018-06-10T10:29:49.596Z,74.16
2018-06-10T10:30:55.528Z,75.27
2018-06-10T10:32:01.389Z,75.78
2018-06-10T10:33:07.281Z,75.12
2018-06-10T10:34:13.280Z,75.23
2018-06-10T10:35:19.167Z,75.55
2018-06-10T10:36:25.161Z,74.21
2018-06-10T10:37:31.043Z,72.80
2018-06-10T10:38:36.971Z,70.87
2018-06-10T10:39:43.095Z,70.44
2018-06-10T10:40:49.283Z,69.74
2018-06-10T10:41:55.196Z,72.76
2018-06-10T10:43:01.155Z,72.63
2018-06-10T10:44:07.030Z,71.94
2018-06-10T10:45:12.980Z,70.60
2018-06-10T10:46:18.907Z,69.86
2018-06-10T10:47:24.875Z,69.62
2018-06-10T10:48:30.800Z,70.22
2018-06-10T10:49:36.763Z,70.42
2018-06-10T10:50:42.725Z,68.81
2018-06-10T10:51:48.647Z,68.00
2018-06-10T10:52:54.585Z,67.64
2018-06-10T10:54:00.451Z,67.71
2018-06-10T10:55:06.372Z,69.83
2018-06-10T10:56:12.321Z,69.25
2018-06-10T10:57:18.239Z,67.50
2018-06-10T10:58:24.559Z,67.22
2018-06-10T10:59:30.560Z,66.67
2018-06-10T11:00:36.535Z,66.54
2018-06-10T11:01:42.474Z,66.66
2018-06-10T11:02:48.357Z,67.71
2018-06-10T11:03:54.202Z,67.78
2018-06-10T11:05:00.089Z,67.62
2018-06-10T11:06:06.251Z,66.67
2018-06-10T11:07:12.182Z,67.13
2018-06-10T11:08:18.116Z,66.59
2018-06-10T11:09:24.218Z,65.69
2018-06-10T11:10:30.253Z,64.42
2018-06-10T11:11:36.188Z,65.31
2018-06-10T11:12:42.120Z,63.68
2018-06-10T11:13:48.061Z,63.93
2018-06-10T11:14:54.076Z,63.86
2018-06-10T11:16:00.032Z,64.96
2018-06-10T11:17:05.953Z,64.15
2018-06-10T11:18:11.896Z,64.22
2018-06-10T11:19:17.897Z,64.24
2018-06-10T11:20:23.899Z,62.70
2018-06-10T11:21:30.047Z,63.69
2018-06-10T11:22:35.952Z,62.94
2018-06-10T11:23:41.895Z,61.14
2018-06-10T11:24:47.792Z,61.34
2018-06-10T11:25:53.418Z,60.96
2018-06-10T11:26:59.594Z,62.26
2018-06-10T11:28:05.722Z,62.14
2018-06-10T11:29:11.671Z,61.38
2018-06-10T11:30:17.358Z,62.07
2018-06-10T11:31:23.259Z,62.80
2018-06-10T11:32:29.223Z,61.15
2018-06-10T11:33:35.100Z,60.66
2018-06-10T11:34:41.011Z,61.08
2018-06-10T11:35:46.893Z,62.13
2018-06-10T11:36:52.842Z,62.23
2018-06-10T11:37:58.482Z,62.03
2018-06-10T11:39:03.480Z,61.74
2018-06-10T11:40:09.562Z,59.31
2018-06-10T11:41:15.536Z,60.27
2018-06-10T11:42:21.552Z,58.83
2018-06-10T11:43:27.652Z,60.51
2018-06-10T11:44:33.577Z,61.18
2018-06-10T11:45:39.633Z,59.63
2018-06-10T11:46:45.877Z,59.45
2018-06-10T11:47:51.879Z,59.73
2018-06-10T11:48:57.965Z,58.98
2018-06-10T11:50:03.606Z,60.16
2018-06-10T11:51:09.615Z,60.53
2018-06-10T11:52:15.539Z,60.08
2018-06-10T11:53:21.740Z,60.29
2018-06-10T11:54:27.682Z,58.47
2018-06-10T11:55:33.649Z,58.78
2018-06-10T11:56:39.565Z,59.48
2018-06-10T11:57:45.481Z,61.57
2018-06-10T11:58:51.398Z,60.15
2018-06-10T11:59:57.344Z,60.39
2018-06-10T12:01:03.242Z,63.32
2018-06-10T12:02:09.544Z,62.17
2018-06-10T12:03:15.507Z,61.02
2018-06-10T12:04:21.455Z,60.04
2018-06-10T12:05:27.394Z,61.19
2018-06-10T12:06:33.447Z,61.27
2018-06-10T12:07:39.364Z,60.23
2018-06-10T12:08:45.271Z,60.50
2018-06-10T12:09:51.283Z,59.87
2018-06-10T12:10:57.268Z,60.82
2018-06-10T12:12:03.185Z,59.86
2018-06-10T12:13:09.159Z,59.84
2018-06-10T12:14:15.145Z,59.86
2018-06-10T12:15:21.261Z,60.13
2018-06-10T12:16:27.239Z,60.17
2018-06-10T12:17:33.232Z,59.96
2018-06-10T12:18:39.198Z,60.54
2018-06-10T12:19:45.219Z,59.01
2018-06-10T12:20:52.216Z,59.79
2018-06-10T12:21:58.741Z,58.20
2018-06-10T12:23:05.069Z,58.35
2018-06-10T12:24:13.472Z,58.09
2018-06-10T12:25:19.654Z,57.90
2018-06-10T12:26:26.018Z,58.97
2018-06-10T12:27:33.557Z,59.72
2018-06-10T12:28:40.494Z,59.08
2018-06-10T12:29:46.538Z,59.09
2018-06-10T12:30:52.657Z,59.55
2018-06-10T12:31:59.183Z,58.63
2018-06-10T12:33:05.859Z,58.90
2018-06-10T12:34:11.839Z,59.65
2018-06-10T12:35:17.892Z,58.73
2018-06-10T12:36:24.085Z,59.78
2018-06-10T12:37:30.153Z,60.82
2018-06-10T12:38:36.180Z,60.61
2018-06-10T12:39:42.158Z,61.31
2018-06-10T12:40:48.128Z,62.13
2018-06-10T12:41:54.192Z,63.82
2018-06-10T12:43:00.415Z,64.05
2018-06-10T12:44:07.867Z,64.45
2018-06-10T12:45:14.429Z,65.01
2018-06-10T12:46:20.893Z,65.08
2018-06-10T12:47:26.926Z,65.48
2018-06-10T12:48:32.984Z,65.65
2018-06-10T12:49:39.060Z,65.25
2018-06-10T12:50:45.223Z,66.55
2018-06-10T12:51:51.336Z,66.41
2018-06-10T12:52:57.581Z,66.79
2018-06-10T12:54:03.561Z,65.87
2018-06-10T12:55:10.258Z,65.43
2018-06-10T12:56:16.507Z,66.66
2018-06-10T12:57:22.637Z,66.25
2018-06-10T12:58:28.677Z,65.94
2018-06-10T12:59:34.993Z,65.77
2018-06-10T13:00:41.285Z,65.59
2018-06-10T13:01:47.280Z,66.23
2018-06-10T13:02:53.426Z,66.22
2018-06-10T13:03:59.560Z,66.60
2018-06-10T13:05:05.583Z,67.08
2018-06-10T13:06:11.641Z,66.79
2018-06-10T13:07:17.726Z,66.81
2018-06-10T13:08:24.783Z,66.94
2018-06-10T13:09:30.778Z,66.48
2018-06-10T13:10:36.774Z,67.42
2018-06-10T13:11:42.349Z,68.24
2018-06-10T13:12:48.336Z,69.54
2018-06-10T13:13:54.318Z,70.62
2018-06-10T13:15:00.257Z,70.36
2018-06-10T13:16:06.200Z,72.07
2018-06-10T13:17:12.120Z,70.72
2018-06-10T13:18:18.380Z,70.44
2018-06-10T13:19:24.717Z,69.71
2018-06-10T13:20:30.721Z,69.88
2018-06-10T13:21:37.070Z,70.50
2018-06-10T13:22:43.378Z,68.60
2018-06-10T13:23:49.411Z,67.76
2018-06-10T13:24:55.371Z,68.65
2018-06-10T13:26:01.565Z,68.70
2018-06-10T13:27:07.571Z,67.22
2018-06-10T13:28:13.371Z,66.66
2018-06-10T13:29:19.331Z,67.37
2018-06-10T13:30:25.110Z,66.96
2018-06-10T13:31:31.092Z,66.58
2018-06-10T13:32:37.556Z,65.44
2018-06-10T13:33:43.587Z,65.47
2018-06-10T13:34:49.515Z,65.66
2018-06-10T13:35:55.404Z,66.42
2018-06-10T13:37:01.443Z,64.59
2018-06-10T13:38:07.453Z,65.41
2018-06-10T13:39:13.368Z,66.36
2018-06-10T13:40:19.349Z,66.72
2018-06-10T13:41:25.230Z,65.58
2018-06-10T13:42:31.204Z,64.64
2018-06-10T13:43:37.180Z,65.02
2018-06-10T13:44:43.163Z,63.84
2018-06-10T13:45:49.160Z,63.03
2018-06-10T13:46:55.071Z,63.27
2018-06-10T13:48:01.037Z,64.19
2018-06-10T13:49:06.957Z,64.86
2018-06-10T13:50:13.012Z,64.89
2018-06-10T13:51:18.935Z,64.27
2018-06-10T13:52:24.893Z,64.59
2018-06-10T13:53:30.845Z,65.07
2018-06-10T13:54:36.827Z,65.99
2018-06-10T13:55:42.752Z,65.92
2018-06-10T13:56:48.661Z,64.72
2018-06-10T13:57:55.447Z,64.41
2018-06-10T13:59:01.167Z,65.15
2018-06-10T14:00:07.965Z,64.39
2018-06-10T14:01:16.536Z,63.35
2018-06-10T14:02:22.674Z,64.42
2018-06-10T14:03:28.612Z,62.42
2018-06-10T14:04:34.615Z,61.74
2018-06-10T14:05:40.612Z,62.47
2018-06-10T14:06:46.603Z,63.18
2018-06-10T14:07:52.754Z,63.72
2018-06-10T14:08:58.749Z,64.51
2018-06-10T14:10:05.192Z,62.46
2018-06-10T14:11:11.181Z,61.72
2018-06-10T14:12:17.178Z,61.69